Time;durP1;ratioP1;P1;durP2;ratioP2;P2;SDS_P1;SDS_P2;PMS_P1;PMS_P2;Temp;Humidity;BMP_temperature;BMP_pressure;BME280_temperature;BME280_humidity;BME280_pressure;Samples;Min_cycle;Max_cycle;Signal;HPM_P1;HPM_P2
2024/01/30 00:01:57;;;;;;;;;;;6.20;99.90;;;;;;5016507;28;19980;-77
2024/01/30 00:04:23;;;;;;;;;;;6.70;99.90;;;;;;5032491;28;20300;-77
2024/01/30 00:06:48;;;;;;;;;;;5.70;99.90;;;;;;5016809;28;19925;-76
2024/01/30 00:09:14;;;;;;;;;;;5.80;99.90;;;;;;5012897;28;19926;-77
2024/01/30 00:11:39;;;;;;;;;;;6.50;99.90;;;;;;5012652;28;19941;-76
2024/01/30 00:14:05;;;;;;;;;;;5.80;99.90;;;;;;5011785;28;19925;-77
2024/01/30 00:16:30;;;;;;;;;;;5.80;99.90;;;;;;5023522;28;19929;-76
2024/01/30 00:18:56;;;;;;;;;;;6.60;99.90;;;;;;5032776;28;19952;-77
2024/01/30 00:21:21;;;;;;;;;;;5.80;99.90;;;;;;5030759;28;19921;-77
2024/01/30 00:23:47;;;;;;;;;;;5.80;99.90;;;;;;5031580;28;19925;-77
2024/01/30 00:26:14;;;;;;;;;;;5.90;99.90;;;;;;5031422;28;19980;-77
2024/01/30 00:28:40;;;;;;;;;;;5.90;99.90;;;;;;5030928;28;20427;-77
2024/01/30 00:31:06;;;;;;;;;;;5.50;99.90;;;;;;5031378;28;19925;-77
2024/01/30 00:33:31;;;;;;;;;;;6.10;99.90;;;;;;5031137;28;19928;-77
2024/01/30 00:35:57;;;;;;;;;;;5.40;99.90;;;;;;5037992;28;19929;-77
2024/01/30 00:38:22;;;;;;;;;;;5.40;99.90;;;;;;5051204;28;19925;-77
2024/01/30 00:40:48;;;;;;;;;;;5.40;99.90;;;;;;5051160;28;19928;-77
2024/01/30 00:43:14;;;;;;;;;;;5.90;99.90;;;;;;5036904;28;19925;-77
2024/01/30 00:45:39;;;;;;;;;;;5.40;99.90;;;;;;5011219;28;19925;-77
2024/01/30 00:48:05;;;;;;;;;;;6.10;99.90;;;;;;5010759;28;19929;-76
2024/01/30 00:50:30;;;;;;;;;;;5.50;99.90;;;;;;5011476;28;19926;-77
2024/01/30 00:52:56;;;;;;;;;;;5.50;99.90;;;;;;5011753;28;20298;-77
2024/01/30 00:55:21;;;;;;;;;;;6.20;99.90;;;;;;5010343;28;19925;-77
2024/01/30 00:57:47;;;;;;;;;;;5.20;99.90;;;;;;5011257;28;19980;-77
2024/01/30 01:00:15;;;;;;;;;;;5.20;99.90;;;;;;5012574;28;19921;-77
2024/01/30 01:02:41;;;;;;;;;;;5.20;99.90;;;;;;5010685;28;19976;-77
2024/01/30 01:05:07;;;;;;;;;;;5.20;99.90;;;;;;5012037;28;19972;-76
2024/01/30 01:07:32;;;;;;;;;;;5.20;99.90;;;;;;5012365;28;19925;-76
2024/01/30 01:09:58;;;;;;;;;;;5.30;99.90;;;;;;5011663;28;20023;-76
2024/01/30 01:12:23;;;;;;;;;;;5.40;99.90;;;;;;5011236;28;19922;-77
2024/01/30 01:14:49;;;;;;;;;;;5.40;99.90;;;;;;5011003;28;19931;-77
2024/01/30 01:17:14;;;;;;;;;;;5.40;99.90;;;;;;5010347;28;20016;-76
2024/01/30 01:19:40;;;;;;;;;;;5.50;99.90;;;;;;5011584;28;20366;-77
2024/01/30 01:22:05;;;;;;;;;;;5.40;99.90;;;;;;5010740;28;19926;-77
2024/01/30 01:24:31;;;;;;;;;;;5.30;99.90;;;;;;5014205;28;19925;-77
2024/01/30 01:26:58;;;;;;;;;;;5.40;99.90;;;;;;5016000;28;19929;-77
2024/01/30 01:29:28;;;;;;;;;;;5.40;99.90;;;;;;5014492;28;19925;-77
2024/01/30 01:31:57;;;;;;;;;;;5.30;99.90;;;;;;5014001;28;19932;-77
2024/01/30 01:34:23;;;;;;;;;;;5.30;99.90;;;;;;5014057;28;19932;-77
2024/01/30 01:36:49;;;;;;;;;;;5.30;99.90;;;;;;5014381;28;20384;-77
2024/01/30 01:39:15;;;;;;;;;;;5.60;99.90;;;;;;5013588;28;19926;-77
2024/01/30 01:41:41;;;;;;;;;;;5.30;99.90;;;;;;5014235;28;19926;-77
2024/01/30 01:44:07;;;;;;;;;;;5.50;99.90;;;;;;5014114;28;19986;-77
2024/01/30 01:46:33;;;;;;;;;;;5.60;99.90;;;;;;5014292;28;20320;-76
2024/01/30 01:48:59;;;;;;;;;;;5.80;99.90;;;;;;5014030;28;19926;-76
2024/01/30 01:51:26;;;;;;;;;;;5.90;99.90;;;;;;5013279;28;20367;-77
2024/01/30 01:53:53;;;;;;;;;;;5.90;99.90;;;;;;5015473;28;20027;-77
2024/01/30 01:56:18;;;;;;;;;;;5.70;99.90;;;;;;5013706;28;20016;-77
2024/01/30 01:58:46;;;;;;;;;;;6.20;99.90;;;;;;5013694;28;19925;-77
2024/01/30 02:01:12;;;;;;;;;;;5.70;99.90;;;;;;5013750;28;19932;-76
2024/01/30 02:03:38;;;;;;;;;;;6.40;99.90;;;;;;5014318;28;19925;-77
2024/01/30 02:06:03;;;;;;;;;;;6.60;99.90;;;;;;5013910;28;19933;-76
2024/01/30 02:08:29;;;;;;;;;;;5.70;99.90;;;;;;5014312;28;19932;-77
2024/01/30 02:10:55;;;;;;;;;;;5.90;99.90;;;;;;5014039;28;19932;-76
2024/01/30 02:13:21;;;;;;;;;;;5.70;99.90;;;;;;5012997;28;20388;-77
2024/01/30 02:15:51;;;;;;;;;;;5.80;99.90;;;;;;5013562;28;19925;-77
2024/01/30 02:18:17;;;;;;;;;;;5.70;99.90;;;;;;5013256;28;19964;-77
2024/01/30 02:20:43;;;;;;;;;;;5.70;99.90;;;;;;5032520;28;19960;-77
2024/01/30 02:23:10;;;;;;;;;;;6.90;99.90;;;;;;5033130;28;19975;-77
2024/01/30 02:25:44;;;;;;;;;;;6.50;99.90;;;;;;5033410;28;19932;-77
2024/01/30 02:28:12;;;;;;;;;;;6.00;99.90;;;;;;5033768;28;19925;-77
2024/01/30 02:30:45;;;;;;;;;;;5.90;99.90;;;;;;5030734;28;19932;-77
2024/01/30 02:33:10;;;;;;;;;;;5.90;99.90;;;;;;5034169;28;20365;-77
2024/01/30 02:35:36;;;;;;;;;;;5.80;99.90;;;;;;5032928;28;19932;-77
2024/01/30 02:38:01;;;;;;;;;;;5.90;99.90;;;;;;5033916;28;19932;-77
2024/01/30 02:40:27;;;;;;;;;;;6.00;99.90;;;;;;5014669;28;19932;-77
2024/01/30 02:42:52;;;;;;;;;;;6.80;99.90;;;;;;5013474;28;20020;-76
2024/01/30 02:45:18;;;;;;;;;;;6.00;99.90;;;;;;5014797;28;19975;-76
2024/01/30 02:47:44;;;;;;;;;;;6.00;99.90;;;;;;5012437;28;20016;-77
2024/01/30 02:50:09;;;;;;;;;;;6.10;99.90;;;;;;5012795;28;19929;-77
2024/01/30 02:52:35;;;;;;;;;;;6.60;99.90;;;;;;5013282;28;20301;-77
2024/01/30 02:55:01;;;;;;;;;;;6.40;99.90;;;;;;5011632;28;19929;-77
2024/01/30 02:57:27;;;;;;;;;;;6.20;99.90;;;;;;5032190;28;19936;-77
2024/01/30 02:59:53;;;;;;;;;;;6.20;99.90;;;;;;5032831;28;19925;-77
2024/01/30 03:02:18;;;;;;;;;;;6.50;99.90;;;;;;5031693;28;19929;-77
2024/01/30 03:04:44;;;;;;;;;;;6.20;99.90;;;;;;5032788;28;19925;-77
2024/01/30 03:07:09;;;;;;;;;;;6.20;99.90;;;;;;5032385;28;20369;-77
2024/01/30 03:09:36;;;;;;;;;;;6.00;99.90;;;;;;5031863;28;19988;-76
2024/01/30 03:12:01;;;;;;;;;;;5.90;99.90;;;;;;5017752;28;19940;-77
2024/01/30 03:14:27;;;;;;;;;;;5.90;99.90;;;;;;5013956;28;19934;-77
2024/01/30 03:16:52;;;;;;;;;;;6.20;99.90;;;;;;5011883;28;19965;-76
2024/01/30 03:19:18;;;;;;;;;;;5.80;99.90;;;;;;5012642;28;19935;-77
2024/01/30 03:21:44;;;;;;;;;;;5.80;99.90;;;;;;5014011;28;20392;-76
2024/01/30 03:24:09;;;;;;;;;;;6.40;99.90;;;;;;5012792;28;19932;-76
2024/01/30 03:26:35;;;;;;;;;;;7.20;99.90;;;;;;5014804;28;19925;-77
2024/01/30 03:29:01;;;;;;;;;;;6.00;99.90;;;;;;5013546;28;20025;-77
2024/01/30 03:31:26;;;;;;;;;;;6.20;99.90;;;;;;5011726;28;19925;-76
2024/01/30 03:33:52;;;;;;;;;;;6.00;99.90;;;;;;5013555;28;19925;-76
2024/01/30 03:36:18;;;;;;;;;;;6.20;99.90;;;;;;5011683;28;20880;-76
2024/01/30 03:38:43;;;;;;;;;;;6.20;99.90;;;;;;5013095;28;20300;-76
2024/01/30 03:41:09;;;;;;;;;;;6.40;99.90;;;;;;5011944;28;20285;-76
2024/01/30 03:43:35;;;;;;;;;;;6.70;99.90;;;;;;5012314;28;19964;-76
2024/01/30 03:46:01;;;;;;;;;;;6.40;99.90;;;;;;5011701;28;19953;-76
2024/01/30 03:48:27;;;;;;;;;;;6.60;99.90;;;;;;5013257;28;19930;-76
2024/01/30 03:50:52;;;;;;;;;;;7.20;99.90;;;;;;5012574;28;19926;-76
2024/01/30 03:53:18;;;;;;;;;;;6.20;99.90;;;;;;5012008;28;20403;-76
2024/01/30 03:55:43;;;;;;;;;;;7.00;99.90;;;;;;5015326;28;19973;-76
2024/01/30 03:58:09;;;;;;;;;;;7.30;99.90;;;;;;5030035;28;19974;-77
2024/01/30 04:00:35;;;;;;;;;;;7.10;99.90;;;;;;5033147;28;19987;-76
2024/01/30 04:03:00;;;;;;;;;;;7.20;99.90;;;;;;5032462;28;19940;-76
2024/01/30 04:05:26;;;;;;;;;;;6.30;99.90;;;;;;5030914;28;19925;-77
2024/01/30 04:07:51;;;;;;;;;;;7.00;99.90;;;;;;5031401;28;19935;-77
2024/01/30 04:10:17;;;;;;;;;;;6.60;99.90;;;;;;5032583;28;19933;-77
2024/01/30 04:12:42;;;;;;;;;;;7.50;99.90;;;;;;5031767;28;20353;-77
2024/01/30 04:15:08;;;;;;;;;;;6.90;99.90;;;;;;5031830;28;19925;-77
2024/01/30 04:17:33;;;;;;;;;;;6.50;99.90;;;;;;5032848;28;19979;-77
2024/01/30 04:19:59;;;;;;;;;;;7.20;99.90;;;;;;5031850;28;19925;-76
2024/01/30 04:22:25;;;;;;;;;;;7.20;99.90;;;;;;5032565;28;20320;-76
2024/01/30 04:24:50;;;;;;;;;;;7.70;99.90;;;;;;5031374;28;19932;-76
2024/01/30 04:27:16;;;;;;;;;;;6.60;99.90;;;;;;5015258;28;19926;-76
2024/01/30 04:29:41;;;;;;;;;;;6.60;99.90;;;;;;5012910;28;19933;-76
2024/01/30 04:32:07;;;;;;;;;;;6.60;99.90;;;;;;5011658;28;20428;-77
2024/01/30 04:34:32;;;;;;;;;;;7.00;99.90;;;;;;5020795;28;19925;-76
2024/01/30 04:36:58;;;;;;;;;;;7.30;99.90;;;;;;5019939;28;19929;-77
2024/01/30 04:39:23;;;;;;;;;;;6.50;99.90;;;;;;5012948;28;20446;-77
2024/01/30 04:41:49;;;;;;;;;;;7.00;99.90;;;;;;5012188;28;20388;-78
2024/01/30 04:44:15;;;;;;;;;;;7.60;99.90;;;;;;5017505;28;19925;-79
2024/01/30 04:46:41;;;;;;;;;;;6.50;99.90;;;;;;5028855;28;20016;-78
2024/01/30 04:49:09;;;;;;;;;;;7.00;99.90;;;;;;5017227;28;20555;-79
2024/01/30 04:51:35;;;;;;;;;;;6.60;99.90;;;;;;5049070;28;19925;-76
2024/01/30 04:54:00;;;;;;;;;;;7.60;99.90;;;;;;5043612;28;19926;-76
2024/01/30 04:56:26;;;;;;;;;;;6.70;99.90;;;;;;5021963;28;20029;-76
2024/01/30 04:58:51;;;;;;;;;;;7.20;99.90;;;;;;5014914;28;20313;-75
2024/01/30 05:01:17;;;;;;;;;;;7.10;99.90;;;;;;5018924;28;19972;-76
2024/01/30 05:03:43;;;;;;;;;;;6.80;99.90;;;;;;5034732;28;20015;-76
2024/01/30 05:06:08;;;;;;;;;;;7.20;99.90;;;;;;5034631;28;20287;-76
2024/01/30 05:08:36;;;;;;;;;;;7.70;99.90;;;;;;5035327;28;19932;-76
2024/01/30 05:11:03;;;;;;;;;;;7.00;99.90;;;;;;5035836;28;19925;-76
2024/01/30 05:13:32;;;;;;;;;;;6.80;99.90;;;;;;5034787;28;19932;-77
2024/01/30 05:15:57;;;;;;;;;;;6.80;99.90;;;;;;5028034;28;19956;-75
2024/01/30 05:18:23;;;;;;;;;;;7.10;99.90;;;;;;5014326;28;19926;-73
2024/01/30 05:20:51;;;;;;;;;;;6.90;99.90;;;;;;5035421;28;20273;-73
2024/01/30 05:23:17;;;;;;;;;;;6.80;99.90;;;;;;5034399;28;19929;-73
2024/01/30 05:25:42;;;;;;;;;;;6.80;99.90;;;;;;5035459;28;19979;-73
2024/01/30 05:28:08;;;;;;;;;;;7.10;99.90;;;;;;5034153;28;20280;-73
2024/01/30 05:30:33;;;;;;;;;;;7.60;99.90;;;;;;5030291;28;19932;-73
2024/01/30 05:33:02;;;;;;;;;;;6.90;99.90;;;;;;5014591;28;19925;-73
2024/01/30 05:35:28;;;;;;;;;;;6.80;99.90;;;;;;5019000;28;19929;-72
2024/01/30 05:37:53;;;;;;;;;;;6.90;99.90;;;;;;5033593;28;20369;-73
2024/01/30 05:40:19;;;;;;;;;;;6.90;99.90;;;;;;5033371;28;19925;-73
2024/01/30 05:42:44;;;;;;;;;;;6.90;99.90;;;;;;5032103;28;19974;-74
2024/01/30 05:45:10;;;;;;;;;;;6.90;99.90;;;;;;5032812;28;19925;-74
2024/01/30 05:47:35;;;;;;;;;;;7.30;99.90;;;;;;5033627;28;20296;-73
2024/01/30 05:50:01;;;;;;;;;;;7.80;99.90;;;;;;5033587;28;19979;-73
2024/01/30 05:52:26;;;;;;;;;;;7.60;99.90;;;;;;5014765;28;20296;-73
2024/01/30 05:54:52;;;;;;;;;;;7.10;99.90;;;;;;5014255;28;19926;-73
2024/01/30 05:57:17;;;;;;;;;;;7.10;99.90;;;;;;5013246;28;19932;-73
2024/01/30 05:59:44;;;;;;;;;;;7.00;99.90;;;;;;5013693;28;19925;-72
2024/01/30 06:02:10;;;;;;;;;;;7.20;99.90;;;;;;5014873;28;19921;-83
2024/01/30 06:04:36;;;;;;;;;;;7.00;99.90;;;;;;5012912;28;20367;-78
2024/01/30 06:07:01;;;;;;;;;;;8.00;99.90;;;;;;5012775;28;20020;-73
2024/01/30 06:09:28;;;;;;;;;;;7.00;99.90;;;;;;5011777;28;19973;-78
2024/01/30 06:11:56;;;;;;;;;;;7.80;99.90;;;;;;5029801;28;19925;-76
2024/01/30 06:14:25;;;;;;;;;;;7.70;99.90;;;;;;5033391;28;19925;-74
2024/01/30 06:16:50;;;;;;;;;;;8.20;99.90;;;;;;5035533;28;20373;-80
2024/01/30 06:19:16;;;;;;;;;;;7.60;99.90;;;;;;5032237;28;19925;-73
2024/01/30 06:21:41;;;;;;;;;;;7.10;99.90;;;;;;5033372;28;19921;-78
2024/01/30 06:24:07;;;;;;;;;;;7.10;99.90;;;;;;5033000;28;19944;-77
2024/01/30 06:26:34;;;;;;;;;;;7.10;99.90;;;;;;5018341;28;19926;-73
2024/01/30 06:28:59;;;;;;;;;;;7.10;99.90;;;;;;5012972;28;19922;-74
2024/01/30 06:31:25;;;;;;;;;;;7.50;99.90;;;;;;5013211;28;20285;-75
2024/01/30 06:33:50;;;;;;;;;;;7.20;99.90;;;;;;5012813;28;20293;-72
2024/01/30 06:36:16;;;;;;;;;;;7.00;99.90;;;;;;5012901;28;19925;-76
2024/01/30 06:38:41;;;;;;;;;;;7.20;99.90;;;;;;5014093;28;19931;-73
2024/01/30 06:41:07;;;;;;;;;;;7.20;99.90;;;;;;5011811;28;19929;-71
2024/01/30 06:43:32;;;;;;;;;;;7.20;99.90;;;;;;5014108;28;19925;-69
2024/01/30 06:45:59;;;;;;;;;;;7.30;99.90;;;;;;5023989;28;19926;-69
2024/01/30 06:48:24;;;;;;;;;;;8.00;99.90;;;;;;5012188;28;19926;-71
2024/01/30 06:50:53;;;;;;;;;;;7.30;99.90;;;;;;5015610;28;20405;-71
2024/01/30 06:53:19;;;;;;;;;;;7.20;99.90;;;;;;5028624;28;19928;-71
2024/01/30 06:55:45;;;;;;;;;;;7.30;99.90;;;;;;5027825;28;19925;-69
2024/01/30 06:58:10;;;;;;;;;;;7.20;99.90;;;;;;5028476;28;19925;-70
2024/01/30 07:00:36;;;;;;;;;;;8.00;99.90;;;;;;5028132;28;19925;-70
2024/01/30 07:03:01;;;;;;;;;;;7.10;99.90;;;;;;5016616;28;19940;-70
2024/01/30 07:05:27;;;;;;;;;;;7.10;99.90;;;;;;5012947;28;19933;-69
2024/01/30 07:07:52;;;;;;;;;;;7.10;99.90;;;;;;5012466;28;19948;-69
2024/01/30 07:10:18;;;;;;;;;;;8.00;99.90;;;;;;5010229;28;20409;-70
2024/01/30 07:12:43;;;;;;;;;;;7.40;99.90;;;;;;5009058;28;19925;-70
2024/01/30 07:15:09;;;;;;;;;;;7.30;99.90;;;;;;5020200;28;19925;-70
2024/01/30 07:17:35;;;;;;;;;;;7.20;99.90;;;;;;5027776;28;19925;-70
2024/01/30 07:20:03;;;;;;;;;;;7.30;99.90;;;;;;5027364;28;20572;-70
2024/01/30 07:22:30;;;;;;;;;;;7.40;99.90;;;;;;5026808;28;19925;-70
2024/01/30 07:24:55;;;;;;;;;;;8.00;99.90;;;;;;5027889;28;19925;-70
2024/01/30 07:27:21;;;;;;;;;;;7.40;99.90;;;;;;5030828;28;19983;-70
2024/01/30 07:29:47;;;;;;;;;;;8.40;99.90;;;;;;5030136;28;19979;-70
2024/01/30 07:32:12;;;;;;;;;;;7.60;99.90;;;;;;5030586;28;19979;-70
2024/01/30 07:34:38;;;;;;;;;;;8.10;99.90;;;;;;5031062;28;19925;-70
2024/01/30 07:37:03;;;;;;;;;;;7.60;99.90;;;;;;5029436;28;19971;-70
2024/01/30 07:39:29;;;;;;;;;;;7.90;99.90;;;;;;5030804;28;19925;-70
2024/01/30 07:41:54;;;;;;;;;;;7.60;99.90;;;;;;5031038;28;19925;-70
2024/01/30 07:44:20;;;;;;;;;;;7.70;99.90;;;;;;5029238;28;19977;-70
2024/01/30 07:46:46;;;;;;;;;;;7.80;99.90;;;;;;5030356;28;20442;-70
2024/01/30 07:49:11;;;;;;;;;;;7.90;99.90;;;;;;5030117;28;19921;-70
2024/01/30 07:51:37;;;;;;;;;;;8.00;99.90;;;;;;5017792;28;19937;-70
2024/01/30 07:54:02;;;;;;;;;;;8.10;99.90;;;;;;5011590;28;19925;-70
2024/01/30 07:56:28;;;;;;;;;;;8.10;99.90;;;;;;5011789;28;19948;-70
2024/01/30 07:58:53;;;;;;;;;;;8.10;99.90;;;;;;5011090;28;19948;-70
2024/01/30 08:01:19;;;;;;;;;;;8.10;99.90;;;;;;5011960;28;19926;-70
2024/01/30 08:03:44;;;;;;;;;;;8.20;99.90;;;;;;5012304;28;20392;-70
2024/01/30 08:06:17;;;;;;;;;;;8.20;99.90;;;;;;5010603;28;20017;-70
2024/01/30 08:08:42;;;;;;;;;;;8.40;99.90;;;;;;5028098;28;20388;-70
2024/01/30 08:11:07;;;;;;;;;;;8.80;99.90;;;;;;5029089;28;19929;-70
2024/01/30 08:13:33;;;;;;;;;;;8.30;99.90;;;;;;5030162;28;19925;-70
2024/01/30 08:15:59;;;;;;;;;;;9.00;99.90;;;;;;5029898;28;19929;-70
2024/01/30 08:18:24;;;;;;;;;;;8.30;99.90;;;;;;5029757;28;20322;-69
2024/01/30 08:20:50;;;;;;;;;;;8.40;99.90;;;;;;5030037;28;19933;-70
2024/01/30 08:23:15;;;;;;;;;;;8.40;99.90;;;;;;5030125;28;19932;-70
2024/01/30 08:25:42;;;;;;;;;;;8.40;99.90;;;;;;5029248;28;19937;-70
2024/01/30 08:28:07;;;;;;;;;;;8.40;99.90;;;;;;5029976;28;19933;-70
2024/01/30 08:30:33;;;;;;;;;;;9.30;99.90;;;;;;5029958;28;19925;-70
2024/01/30 08:32:59;;;;;;;;;;;8.50;99.90;;;;;;5031220;28;19925;-70
2024/01/30 08:35:24;;;;;;;;;;;8.50;99.90;;;;;;5034080;28;19929;-70
2024/01/30 08:37:50;;;;;;;;;;;8.50;99.90;;;;;;5033807;28;20103;-69
2024/01/30 08:40:15;;;;;;;;;;;8.60;99.90;;;;;;5032999;28;19932;-70
2024/01/30 08:42:41;;;;;;;;;;;8.60;99.90;;;;;;5034018;28;19925;-70
2024/01/30 08:45:07;;;;;;;;;;;8.60;99.90;;;;;;5033315;28;19925;-70
2024/01/30 08:47:33;;;;;;;;;;;8.50;99.90;;;;;;5033508;28;20262;-70
2024/01/30 08:49:58;;;;;;;;;;;8.60;99.90;;;;;;5033857;28;19933;-70
2024/01/30 08:52:24;;;;;;;;;;;8.70;99.90;;;;;;5015695;28;19997;-69
2024/01/30 08:54:49;;;;;;;;;;;8.60;99.90;;;;;;5014503;28;19933;-70
2024/01/30 08:57:15;;;;;;;;;;;8.80;99.90;;;;;;5016017;28;20348;-70
2024/01/30 08:59:40;;;;;;;;;;;8.80;99.90;;;;;;5015171;28;20012;-70
2024/01/30 09:02:06;;;;;;;;;;;8.80;99.90;;;;;;5013826;28;19925;-70
2024/01/30 09:04:31;;;;;;;;;;;8.70;99.90;;;;;;5015242;28;20035;-70
2024/01/30 09:06:57;;;;;;;;;;;9.50;99.90;;;;;;5014862;28;19929;-72
2024/01/30 09:09:23;;;;;;;;;;;8.80;99.90;;;;;;5013910;28;19926;-69
2024/01/30 09:11:48;;;;;;;;;;;9.80;99.90;;;;;;5015080;28;19925;-70
2024/01/30 09:14:14;;;;;;;;;;;9.40;99.90;;;;;;5014291;28;19989;-70
2024/01/30 09:16:39;;;;;;;;;;;9.90;99.90;;;;;;5014382;28;19929;-70
2024/01/30 09:19:05;;;;;;;;;;;9.00;99.90;;;;;;5014720;28;20024;-70
2024/01/30 09:21:30;;;;;;;;;;;9.90;99.90;;;;;;5013769;28;19934;-69
2024/01/30 09:24:01;;;;;;;;;;;9.00;99.90;;;;;;5014729;28;19976;-70
2024/01/30 09:26:26;;;;;;;;;;;9.50;99.90;;;;;;5014698;28;19925;-69
2024/01/30 09:28:52;;;;;;;;;;;9.90;99.90;;;;;;5014255;28;19926;-70
2024/01/30 09:31:20;;;;;;;;;;;9.00;99.90;;;;;;5014490;28;20161;-69
2024/01/30 09:33:47;;;;;;;;;;;9.10;99.90;;;;;;5015125;28;19948;-71
2024/01/30 09:36:15;;;;;;;;;;;9.10;99.90;;;;;;5013937;28;19965;-71
2024/01/30 09:38:40;;;;;;;;;;;9.80;99.90;;;;;;5014703;28;19925;-71
2024/01/30 09:41:12;;;;;;;;;;;9.80;99.90;;;;;;5013975;28;19929;-71
2024/01/30 09:43:39;;;;;;;;;;;9.20;99.90;;;;;;5012443;28;19932;-72
2024/01/30 09:46:05;;;;;;;;;;;10.10;99.90;;;;;;5014623;28;20372;-71
2024/01/30 09:48:31;;;;;;;;;;;9.10;99.90;;;;;;5014249;28;19989;-71
2024/01/30 09:50:57;;;;;;;;;;;9.10;99.90;;;;;;5018530;28;19956;-71
2024/01/30 09:53:22;;;;;;;;;;;9.10;99.90;;;;;;5033226;28;20364;-71
2024/01/30 09:55:50;;;;;;;;;;;9.20;99.90;;;;;;5033915;28;19929;-71
2024/01/30 09:58:16;;;;;;;;;;;9.10;99.90;;;;;;5033769;28;19925;-72
2024/01/30 10:00:41;;;;;;;;;;;9.30;99.90;;;;;;5033536;28;19925;-72
2024/01/30 10:03:07;;;;;;;;;;;10.00;99.90;;;;;;5033518;28;20332;-72
2024/01/30 10:05:34;;;;;;;;;;;9.40;99.90;;;;;;5020406;28;20381;-73
2024/01/30 10:07:59;;;;;;;;;;;9.20;99.90;;;;;;5017610;28;19925;-72
2024/01/30 10:10:25;;;;;;;;;;;9.20;99.90;;;;;;5033218;28;20351;-72
2024/01/30 10:12:50;;;;;;;;;;;9.20;99.90;;;;;;5014554;28;19940;-72
2024/01/30 10:15:17;;;;;;;;;;;9.10;99.90;;;;;;5013093;28;20341;-72
2024/01/30 10:17:43;;;;;;;;;;;9.90;99.90;;;;;;5025363;28;20004;-72
2024/01/30 10:20:09;;;;;;;;;;;9.20;99.90;;;;;;5013013;28;20293;-72
2024/01/30 10:22:35;;;;;;;;;;;9.10;99.90;;;;;;5023911;28;19925;-72
2024/01/30 10:25:00;;;;;;;;;;;9.90;99.90;;;;;;5031813;28;20270;-71
2024/01/30 10:27:29;;;;;;;;;;;10.10;99.90;;;;;;5033146;28;20035;-71
2024/01/30 10:29:55;;;;;;;;;;;9.00;99.90;;;;;;5033629;28;19929;-71
2024/01/30 10:32:21;;;;;;;;;;;9.70;99.90;;;;;;5032199;28;20369;-72
2024/01/30 10:34:46;;;;;;;;;;;9.30;99.90;;;;;;5032973;28;19925;-71
2024/01/30 10:37:14;;;;;;;;;;;9.20;99.90;;;;;;5030417;28;20308;-72
2024/01/30 10:39:40;;;;;;;;;;;9.20;99.90;;;;;;5032430;28;19925;-72
2024/01/30 10:42:09;;;;;;;;;;;9.20;99.90;;;;;;5032634;28;19932;-71
2024/01/30 10:44:55;;;;;;;;;;;9.10;99.90;;;;;;5032707;28;19931;-72
2024/01/30 10:47:25;;;;;;;;;;;9.40;99.90;;;;;;5011770;28;19988;-72
2024/01/30 10:49:51;;;;;;;;;;;9.10;99.90;;;;;;5013367;28;19929;-72
2024/01/30 10:52:17;;;;;;;;;;;9.20;99.90;;;;;;5017356;28;20245;-72
2024/01/30 10:54:44;;;;;;;;;;;9.20;99.90;;;;;;5031587;28;19964;-72
2024/01/30 10:57:10;;;;;;;;;;;9.20;99.90;;;;;;5030544;28;19929;-71
2024/01/30 10:59:36;;;;;;;;;;;9.70;99.90;;;;;;5021434;28;20020;-71
2024/01/30 11:02:02;;;;;;;;;;;9.40;99.90;;;;;;5030232;28;20384;-71
2024/01/30 11:04:35;;;;;;;;;;;9.10;99.90;;;;;;5021382;28;19932;-71
2024/01/30 11:07:02;;;;;;;;;;;9.00;99.90;;;;;;5031497;28;20388;-71
2024/01/30 11:09:29;;;;;;;;;;;9.10;99.90;;;;;;5018635;28;20021;-72
2024/01/30 11:12:01;;;;;;;;;;;9.20;99.90;;;;;;5013605;28;21349;-71
2024/01/30 11:14:27;;;;;;;;;;;9.90;99.90;;;;;;5017268;28;19929;-71
2024/01/30 11:16:53;;;;;;;;;;;9.80;99.90;;;;;;5012192;28;19933;-71
2024/01/30 11:19:25;;;;;;;;;;;9.20;99.90;;;;;;5017652;28;19929;-71
2024/01/30 11:21:56;;;;;;;;;;;9.00;99.90;;;;;;5013366;28;20320;-71
2024/01/30 11:24:22;;;;;;;;;;;9.00;99.90;;;;;;5012377;28;19979;-70
2024/01/30 11:26:49;;;;;;;;;;;9.60;99.90;;;;;;5012374;28;19929;-70
2024/01/30 11:29:15;;;;;;;;;;;9.70;99.90;;;;;;5011174;28;19929;-70
2024/01/30 11:31:53;;;;;;;;;;;9.10;99.90;;;;;;5019543;28;19926;-71
2024/01/30 11:34:20;;;;;;;;;;;8.90;99.90;;;;;;5012265;28;20012;-71
2024/01/30 11:36:48;;;;;;;;;;;8.90;99.90;;;;;;5011365;28;19926;-71
2024/01/30 11:39:20;;;;;;;;;;;9.40;99.90;;;;;;5012213;28;19932;-70
2024/01/30 11:41:45;;;;;;;;;;;8.80;99.90;;;;;;5013374;28;19925;-70
2024/01/30 11:44:11;;;;;;;;;;;8.70;99.90;;;;;;5019378;28;19935;-70
2024/01/30 11:46:36;;;;;;;;;;;8.80;99.90;;;;;;5030566;28;19959;-70
2024/01/30 11:49:02;;;;;;;;;;;8.70;99.90;;;;;;5029266;28;20340;-70
2024/01/30 11:51:30;;;;;;;;;;;8.70;99.90;;;;;;5030787;28;19983;-70
2024/01/30 11:53:55;;;;;;;;;;;8.80;99.90;;;;;;5030368;28;20331;-70
2024/01/30 11:56:23;;;;;;;;;;;9.00;99.90;;;;;;5029313;28;19955;-72
2024/01/30 11:58:49;;;;;;;;;;;9.60;99.90;;;;;;5030566;28;19969;-71
2024/01/30 12:01:18;;;;;;;;;;;9.10;99.90;;;;;;5029900;28;19921;-70
2024/01/30 12:03:49;;;;;;;;;;;10.10;99.90;;;;;;5029722;28;19929;-69
2024/01/30 12:06:15;;;;;;;;;;;9.40;99.90;;;;;;5030200;28;20393;-69
2024/01/30 12:08:41;;;;;;;;;;;9.40;99.90;;;;;;5011232;28;19925;-69
2024/01/30 12:11:06;;;;;;;;;;;9.00;99.90;;;;;;5011017;28;19980;-71
2024/01/30 12:13:32;;;;;;;;;;;9.00;99.90;;;;;;5024760;28;19960;-71
2024/01/30 12:15:58;;;;;;;;;;;9.60;99.90;;;;;;5011373;28;19948;-70
2024/01/30 12:18:23;;;;;;;;;;;8.80;99.90;;;;;;5011225;28;20325;-70
2024/01/30 12:20:59;;;;;;;;;;;8.80;99.90;;;;;;5011910;28;19925;-71
2024/01/30 12:23:25;;;;;;;;;;;8.70;99.90;;;;;;5012016;28;19931;-70
2024/01/30 12:25:54;;;;;;;;;;;8.80;99.90;;;;;;5010765;28;19925;-70
2024/01/30 12:28:20;;;;;;;;;;;8.80;99.90;;;;;;5011318;28;19979;-70
2024/01/30 12:30:46;;;;;;;;;;;8.90;99.90;;;;;;5011410;28;19926;-71
2024/01/30 12:33:16;;;;;;;;;;;8.80;99.90;;;;;;5010937;28;20361;-70
2024/01/30 12:35:45;;;;;;;;;;;8.80;99.90;;;;;;5015065;28;19925;-71
2024/01/30 12:38:10;;;;;;;;;;;8.90;99.90;;;;;;5011051;28;19940;-70
2024/01/30 12:40:36;;;;;;;;;;;8.80;99.90;;;;;;5010914;28;19925;-71
2024/01/30 12:43:02;;;;;;;;;;;8.90;99.90;;;;;;5011522;28;20020;-71
2024/01/30 12:45:27;;;;;;;;;;;8.70;99.90;;;;;;5010419;28;20072;-70
2024/01/30 12:47:53;;;;;;;;;;;8.80;99.90;;;;;;5011725;28;19926;-70
2024/01/30 12:50:19;;;;;;;;;;;8.80;99.90;;;;;;5011453;28;19937;-70
2024/01/30 12:52:44;;;;;;;;;;;9.20;99.90;;;;;;5010639;28;19925;-70
2024/01/30 12:55:10;;;;;;;;;;;8.70;99.90;;;;;;5011325;28;19925;-70
2024/01/30 12:57:35;;;;;;;;;;;8.70;99.90;;;;;;5011341;28;19964;-70
2024/01/30 13:00:04;;;;;;;;;;;8.80;99.90;;;;;;5022831;28;19973;-70
2024/01/30 13:02:36;;;;;;;;;;;8.90;99.90;;;;;;5037098;28;19925;-70
2024/01/30 13:05:05;;;;;;;;;;;8.80;99.90;;;;;;5029499;28;20015;-72
2024/01/30 13:07:30;;;;;;;;;;;8.60;99.90;;;;;;5019822;28;19929;-71
2024/01/30 13:10:01;;;;;;;;;;;8.70;99.90;;;;;;5011321;28;20387;-70
2024/01/30 13:12:38;;;;;;;;;;;8.80;99.90;;;;;;5011245;28;19929;-70
2024/01/30 13:15:04;;;;;;;;;;;8.70;99.90;;;;;;5026193;28;19960;-71
2024/01/30 13:17:33;;;;;;;;;;;8.70;99.90;;;;;;5030025;28;19968;-70
2024/01/30 13:19:58;;;;;;;;;;;8.80;99.90;;;;;;5032834;28;19937;-71
2024/01/30 13:22:24;;;;;;;;;;;8.70;99.90;;;;;;5032576;28;19925;-73
2024/01/30 13:24:50;;;;;;;;;;;8.70;99.90;;;;;;5034298;28;20015;-72
2024/01/30 13:27:15;;;;;;;;;;;8.60;99.90;;;;;;5032338;28;20023;-70
2024/01/30 13:29:41;;;;;;;;;;;9.20;99.90;;;;;;5028115;28;20317;-71
2024/01/30 13:32:06;;;;;;;;;;;9.20;99.90;;;;;;5014454;28;19925;-70
2024/01/30 13:34:32;;;;;;;;;;;8.60;99.90;;;;;;5018584;28;20305;-72
2024/01/30 13:36:58;;;;;;;;;;;9.00;99.90;;;;;;5014446;28;19929;-71
2024/01/30 13:39:26;;;;;;;;;;;9.10;99.90;;;;;;5014786;28;19927;-71
2024/01/30 13:41:52;;;;;;;;;;;8.70;99.90;;;;;;5013944;28;19926;-72
2024/01/30 13:44:18;;;;;;;;;;;8.70;99.90;;;;;;5015032;28;19929;-72
2024/01/30 13:46:44;;;;;;;;;;;8.70;99.90;;;;;;5020728;28;20377;-72
2024/01/30 13:49:10;;;;;;;;;;;8.70;99.90;;;;;;5013122;28;19926;-71
2024/01/30 13:51:38;;;;;;;;;;;9.10;99.90;;;;;;5017620;28;19948;-70
2024/01/30 13:54:07;;;;;;;;;;;8.80;99.90;;;;;;5025575;28;19925;-70
2024/01/30 13:56:32;;;;;;;;;;;8.70;99.90;;;;;;5011958;28;19926;-71
2024/01/30 13:58:59;;;;;;;;;;;8.60;99.90;;;;;;5013980;28;19937;-71
2024/01/30 14:01:25;;;;;;;;;;;8.50;99.90;;;;;;5014046;28;19926;-70
2024/01/30 14:03:54;;;;;;;;;;;8.60;99.90;;;;;;5013583;28;19925;-70
2024/01/30 14:06:19;;;;;;;;;;;8.60;99.90;;;;;;5015532;28;19929;-70
2024/01/30 14:08:45;;;;;;;;;;;8.60;99.90;;;;;;5014177;28;20259;-71
2024/01/30 14:11:13;;;;;;;;;;;8.50;99.90;;;;;;5013674;28;19925;-71
2024/01/30 14:13:41;;;;;;;;;;;8.60;99.90;;;;;;5029959;28;19925;-71
2024/01/30 14:16:07;;;;;;;;;;;9.00;99.90;;;;;;5032935;28;20028;-72
2024/01/30 14:18:32;;;;;;;;;;;8.50;99.90;;;;;;5021875;28;19926;-70
2024/01/30 14:20:58;;;;;;;;;;;8.90;99.90;;;;;;5013494;28;19929;-71
2024/01/30 14:23:23;;;;;;;;;;;8.60;99.90;;;;;;5025595;28;19925;-70
2024/01/30 14:25:49;;;;;;;;;;;8.80;99.90;;;;;;5033185;28;19995;-70